sensor_id;sensor_type;location;lat;lon;timestamp;P1;durP1;ratioP1;P2;durP2;ratioP2
59828;SDS011;45708;51.848;107.620;2023-09-30T00:02:11;3.75;;;3.20;;
59828;SDS011;45708;51.848;107.620;2023-09-30T00:07:12;5.07;;;2.83;;
59828;SDS011;45708;51.848;107.620;2023-09-30T00:12:12;4.03;;;3.75;;
59828;SDS011;45708;51.848;107.620;2023-09-30T00:17:14;1.80;;;1.70;;
59828;SDS011;45708;51.848;107.620;2023-09-30T00:22:14;5.40;;;4.40;;
59828;SDS011;45708;51.848;107.620;2023-09-30T00:27:15;13.32;;;7.97;;
59828;SDS011;45708;51.848;107.620;2023-09-30T00:32:16;10.32;;;5.70;;
59828;SDS011;45708;51.848;107.620;2023-09-30T00:37:17;6.78;;;5.25;;
59828;SDS011;45708;51.848;107.620;2023-09-30T00:42:18;9.98;;;5.32;;
59828;SDS011;45708;51.848;107.620;2023-09-30T00:47:19;11.10;;;5.10;;
59828;SDS011;45708;51.848;107.620;2023-09-30T00:52:20;8.93;;;5.35;;
59828;SDS011;45708;51.848;107.620;2023-09-30T00:57:21;7.28;;;5.55;;
59828;SDS011;45708;51.848;107.620;2023-09-30T01:02:22;10.32;;;5.30;;
59828;SDS011;45708;51.848;107.620;2023-09-30T01:07:23;11.85;;;6.22;;
59828;SDS011;45708;51.848;107.620;2023-09-30T01:12:24;6.75;;;4.32;;
59828;SDS011;45708;51.848;107.620;2023-09-30T01:17:25;7.65;;;6.18;;
59828;SDS011;45708;51.848;107.620;2023-09-30T01:22:25;20.15;;;11.23;;
59828;SDS011;45708;51.848;107.620;2023-09-30T01:27:26;23.27;;;11.80;;
59828;SDS011;45708;51.848;107.620;2023-09-30T01:32:27;13.75;;;8.05;;
59828;SDS011;45708;51.848;107.620;2023-09-30T01:37:28;14.38;;;9.90;;
59828;SDS011;45708;51.848;107.620;2023-09-30T01:42:29;12.90;;;8.38;;
59828;SDS011;45708;51.848;107.620;2023-09-30T01:47:29;10.52;;;7.43;;
59828;SDS011;45708;51.848;107.620;2023-09-30T01:52:30;23.60;;;10.40;;
59828;SDS011;45708;51.848;107.620;2023-09-30T01:57:31;21.83;;;11.40;;
59828;SDS011;45708;51.848;107.620;2023-09-30T02:02:32;28.17;;;12.45;;
59828;SDS011;45708;51.848;107.620;2023-09-30T02:07:32;13.70;;;8.40;;
59828;SDS011;45708;51.848;107.620;2023-09-30T02:12:34;12.82;;;6.70;;
59828;SDS011;45708;51.848;107.620;2023-09-30T02:17:34;25.40;;;11.07;;
59828;SDS011;45708;51.848;107.620;2023-09-30T02:22:35;12.13;;;8.70;;
59828;SDS011;45708;51.848;107.620;2023-09-30T02:27:36;11.57;;;7.65;;
59828;SDS011;45708;51.848;107.620;2023-09-30T02:32:38;7.38;;;6.20;;
59828;SDS011;45708;51.848;107.620;2023-09-30T02:37:39;9.10;;;6.43;;
59828;SDS011;45708;51.848;107.620;2023-09-30T02:42:40;9.05;;;5.32;;
59828;SDS011;45708;51.848;107.620;2023-09-30T02:47:41;7.10;;;6.10;;
59828;SDS011;45708;51.848;107.620;2023-09-30T02:52:42;9.70;;;6.18;;
59828;SDS011;45708;51.848;107.620;2023-09-30T02:57:43;11.25;;;7.28;;
59828;SDS011;45708;51.848;107.620;2023-09-30T03:02:43;13.88;;;6.82;;
59828;SDS011;45708;51.848;107.620;2023-09-30T03:07:44;7.22;;;6.20;;
59828;SDS011;45708;51.848;107.620;2023-09-30T03:12:49;10.60;;;4.63;;
59828;SDS011;45708;51.848;107.620;2023-09-30T03:17:58;4.90;;;3.95;;
59828;SDS011;45708;51.848;107.620;2023-09-30T03:22:59;3.55;;;3.30;;
59828;SDS011;45708;51.848;107.620;2023-09-30T03:28:00;6.05;;;5.10;;
59828;SDS011;45708;51.848;107.620;2023-09-30T03:33:01;9.88;;;4.88;;
59828;SDS011;45708;51.848;107.620;2023-09-30T03:38:02;9.32;;;5.13;;
59828;SDS011;45708;51.848;107.620;2023-09-30T03:43:03;5.97;;;4.28;;
59828;SDS011;45708;51.848;107.620;2023-09-30T03:48:04;4.13;;;3.40;;
59828;SDS011;45708;51.848;107.620;2023-09-30T03:53:05;2.15;;;1.95;;
59828;SDS011;45708;51.848;107.620;2023-09-30T03:58:06;2.85;;;2.58;;
59828;SDS011;45708;51.848;107.620;2023-09-30T04:03:06;3.10;;;2.10;;
59828;SDS011;45708;51.848;107.620;2023-09-30T04:08:07;3.78;;;2.33;;
59828;SDS011;45708;51.848;107.620;2023-09-30T04:13:08;1.63;;;1.33;;
59828;SDS011;45708;51.848;107.620;2023-09-30T04:18:09;2.65;;;1.67;;
59828;SDS011;45708;51.848;107.620;2023-09-30T04:23:10;2.63;;;2.40;;
59828;SDS011;45708;51.848;107.620;2023-09-30T04:28:11;1.63;;;1.40;;
59828;SDS011;45708;51.848;107.620;2023-09-30T04:33:11;3.67;;;1.80;;
59828;SDS011;45708;51.848;107.620;2023-09-30T04:38:12;4.22;;;1.30;;
59828;SDS011;45708;51.848;107.620;2023-09-30T04:43:13;2.10;;;1.25;;
59828;SDS011;45708;51.848;107.620;2023-09-30T04:48:14;0.95;;;0.93;;
59828;SDS011;45708;51.848;107.620;2023-09-30T04:53:15;2.88;;;2.55;;
59828;SDS011;45708;51.848;107.620;2023-09-30T04:58:16;4.32;;;2.60;;
59828;SDS011;45708;51.848;107.620;2023-09-30T05:03:17;2.67;;;1.95;;
59828;SDS011;45708;51.848;107.620;2023-09-30T05:08:18;3.63;;;2.72;;
59828;SDS011;45708;51.848;107.620;2023-09-30T05:13:18;5.15;;;2.85;;
59828;SDS011;45708;51.848;107.620;2023-09-30T05:18:19;4.13;;;2.72;;
59828;SDS011;45708;51.848;107.620;2023-09-30T05:23:20;2.92;;;2.25;;
59828;SDS011;45708;51.848;107.620;2023-09-30T05:28:21;5.43;;;3.67;;
59828;SDS011;45708;51.848;107.620;2023-09-30T05:33:22;5.93;;;2.78;;
59828;SDS011;45708;51.848;107.620;2023-09-30T05:38:22;2.03;;;1.83;;
59828;SDS011;45708;51.848;107.620;2023-09-30T05:43:23;2.70;;;2.47;;
59828;SDS011;45708;51.848;107.620;2023-09-30T05:48:24;2.08;;;1.60;;
59828;SDS011;45708;51.848;107.620;2023-09-30T05:53:25;4.10;;;1.88;;
59828;SDS011;45708;51.848;107.620;2023-09-30T05:58:26;5.10;;;2.05;;
59828;SDS011;45708;51.848;107.620;2023-09-30T06:03:27;2.55;;;2.05;;
59828;SDS011;45708;51.848;107.620;2023-09-30T06:08:27;5.47;;;1.83;;
59828;SDS011;45708;51.848;107.620;2023-09-30T06:13:28;6.50;;;2.90;;
59828;SDS011;45708;51.848;107.620;2023-09-30T06:18:29;2.67;;;2.47;;
59828;SDS011;45708;51.848;107.620;2023-09-30T06:23:30;4.43;;;3.30;;
59828;SDS011;45708;51.848;107.620;2023-09-30T06:28:31;2.75;;;2.47;;
59828;SDS011;45708;51.848;107.620;2023-09-30T06:33:32;2.03;;;1.77;;
59828;SDS011;45708;51.848;107.620;2023-09-30T06:38:33;5.35;;;2.15;;
59828;SDS011;45708;51.848;107.620;2023-09-30T06:43:34;3.70;;;1.92;;
59828;SDS011;45708;51.848;107.620;2023-09-30T06:48:35;2.83;;;1.63;;
59828;SDS011;45708;51.848;107.620;2023-09-30T06:53:37;1.75;;;1.42;;
59828;SDS011;45708;51.848;107.620;2023-09-30T06:58:37;3.47;;;2.13;;
59828;SDS011;45708;51.848;107.620;2023-09-30T07:03:38;6.78;;;2.55;;
59828;SDS011;45708;51.848;107.620;2023-09-30T07:08:39;1.95;;;1.77;;
59828;SDS011;45708;51.848;107.620;2023-09-30T07:13:40;2.05;;;1.83;;
59828;SDS011;45708;51.848;107.620;2023-09-30T07:18:41;7.57;;;1.75;;
59828;SDS011;45708;51.848;107.620;2023-09-30T07:23:41;2.30;;;2.10;;
59828;SDS011;45708;51.848;107.620;2023-09-30T07:28:42;5.20;;;2.15;;
59828;SDS011;45708;51.848;107.620;2023-09-30T07:33:43;3.60;;;2.05;;
59828;SDS011;45708;51.848;107.620;2023-09-30T07:38:44;2.13;;;2.03;;
59828;SDS011;45708;51.848;107.620;2023-09-30T07:43:45;2.95;;;2.08;;
59828;SDS011;45708;51.848;107.620;2023-09-30T07:48:45;3.65;;;3.38;;
59828;SDS011;45708;51.848;107.620;2023-09-30T07:53:46;2.95;;;2.67;;
59828;SDS011;45708;51.848;107.620;2023-09-30T07:58:47;6.88;;;2.33;;
59828;SDS011;45708;51.848;107.620;2023-09-30T08:03:48;4.07;;;1.63;;
59828;SDS011;45708;51.848;107.620;2023-09-30T08:08:49;4.65;;;1.77;;
59828;SDS011;45708;51.848;107.620;2023-09-30T08:13:50;5.47;;;2.38;;
59828;SDS011;45708;51.848;107.620;2023-09-30T08:18:51;2.30;;;2.10;;
59828;SDS011;45708;51.848;107.620;2023-09-30T08:23:52;2.88;;;1.80;;
59828;SDS011;45708;51.848;107.620;2023-09-30T08:28:53;3.72;;;2.00;;
59828;SDS011;45708;51.848;107.620;2023-09-30T08:33:53;8.40;;;6.90;;
59828;SDS011;45708;51.848;107.620;2023-09-30T08:38:54;4.90;;;2.40;;
59828;SDS011;45708;51.848;107.620;2023-09-30T08:43:55;3.35;;;1.77;;
59828;SDS011;45708;51.848;107.620;2023-09-30T08:49:03;6.57;;;2.47;;
59828;SDS011;45708;51.848;107.620;2023-09-30T08:54:05;3.25;;;1.48;;
59828;SDS011;45708;51.848;107.620;2023-09-30T08:59:06;2.03;;;1.50;;
59828;SDS011;45708;51.848;107.620;2023-09-30T09:04:07;2.88;;;2.63;;
59828;SDS011;45708;51.848;107.620;2023-09-30T09:09:17;2.10;;;1.85;;
59828;SDS011;45708;51.848;107.620;2023-09-30T09:14:18;2.35;;;1.55;;
59828;SDS011;45708;51.848;107.620;2023-09-30T09:19:19;12.88;;;2.28;;
59828;SDS011;45708;51.848;107.620;2023-09-30T09:24:27;4.72;;;2.75;;
59828;SDS011;45708;51.848;107.620;2023-09-30T09:29:32;5.20;;;3.30;;
59828;SDS011;45708;51.848;107.620;2023-09-30T09:34:33;4.35;;;3.50;;
59828;SDS011;45708;51.848;107.620;2023-09-30T09:39:34;6.70;;;2.85;;
59828;SDS011;45708;51.848;107.620;2023-09-30T09:44:35;12.65;;;5.63;;
59828;SDS011;45708;51.848;107.620;2023-09-30T09:49:37;12.05;;;7.05;;
59828;SDS011;45708;51.848;107.620;2023-09-30T09:54:38;12.20;;;8.93;;
59828;SDS011;45708;51.848;107.620;2023-09-30T09:59:41;30.58;;;14.32;;
59828;SDS011;45708;51.848;107.620;2023-09-30T10:04:46;21.95;;;12.77;;
59828;SDS011;45708;51.848;107.620;2023-09-30T10:09:49;14.52;;;8.80;;
59828;SDS011;45708;51.848;107.620;2023-09-30T10:14:51;9.30;;;7.13;;
59828;SDS011;45708;51.848;107.620;2023-09-30T10:20:05;9.85;;;7.07;;
59828;SDS011;45708;51.848;107.620;2023-09-30T10:30:36;7.55;;;5.68;;
59828;SDS011;45708;51.848;107.620;2023-09-30T10:40:37;8.13;;;4.75;;
59828;SDS011;45708;51.848;107.620;2023-09-30T10:50:53;7.47;;;5.72;;
59828;SDS011;45708;51.848;107.620;2023-09-30T10:55:56;13.27;;;5.82;;
59828;SDS011;45708;51.848;107.620;2023-09-30T11:01:00;7.68;;;5.38;;
59828;SDS011;45708;51.848;107.620;2023-09-30T11:06:06;9.45;;;6.60;;
59828;SDS011;45708;51.848;107.620;2023-09-30T11:11:11;8.88;;;5.07;;
59828;SDS011;45708;51.848;107.620;2023-09-30T11:16:13;8.52;;;5.45;;
59828;SDS011;45708;51.848;107.620;2023-09-30T11:21:14;3.85;;;3.25;;
59828;SDS011;45708;51.848;107.620;2023-09-30T11:26:16;4.20;;;3.80;;
59828;SDS011;45708;51.848;107.620;2023-09-30T11:31:29;12.18;;;4.18;;
59828;SDS011;45708;51.848;107.620;2023-09-30T11:36:30;5.10;;;3.63;;
59828;SDS011;45708;51.848;107.620;2023-09-30T11:41:38;5.18;;;3.35;;
59828;SDS011;45708;51.848;107.620;2023-09-30T11:46:49;4.60;;;4.05;;
59828;SDS011;45708;51.848;107.620;2023-09-30T11:51:50;9.60;;;7.22;;
59828;SDS011;45708;51.848;107.620;2023-09-30T11:56:51;18.08;;;11.82;;
59828;SDS011;45708;51.848;107.620;2023-09-30T12:01:52;20.85;;;16.50;;
59828;SDS011;45708;51.848;107.620;2023-09-30T12:06:53;26.27;;;16.13;;
59828;SDS011;45708;51.848;107.620;2023-09-30T12:11:54;23.50;;;13.63;;
59828;SDS011;45708;51.848;107.620;2023-09-30T12:16:55;15.45;;;10.90;;
59828;SDS011;45708;51.848;107.620;2023-09-30T12:21:55;17.00;;;11.07;;
59828;SDS011;45708;51.848;107.620;2023-09-30T12:26:56;13.52;;;8.20;;
59828;SDS011;45708;51.848;107.620;2023-09-30T12:31:57;5.63;;;4.97;;
59828;SDS011;45708;51.848;107.620;2023-09-30T12:36:58;11.57;;;4.78;;
59828;SDS011;45708;51.848;107.620;2023-09-30T12:41:59;5.57;;;4.80;;
59828;SDS011;45708;51.848;107.620;2023-09-30T12:46:59;9.10;;;5.40;;
59828;SDS011;45708;51.848;107.620;2023-09-30T12:52:01;11.52;;;7.75;;
59828;SDS011;45708;51.848;107.620;2023-09-30T12:57:01;16.60;;;7.90;;
59828;SDS011;45708;51.848;107.620;2023-09-30T13:02:02;21.33;;;9.52;;
59828;SDS011;45708;51.848;107.620;2023-09-30T13:07:03;18.98;;;8.45;;
59828;SDS011;45708;51.848;107.620;2023-09-30T13:12:04;14.00;;;6.38;;
59828;SDS011;45708;51.848;107.620;2023-09-30T13:17:05;18.33;;;11.02;;
59828;SDS011;45708;51.848;107.620;2023-09-30T13:22:06;12.43;;;8.98;;
59828;SDS011;45708;51.848;107.620;2023-09-30T13:27:07;18.60;;;8.43;;
59828;SDS011;45708;51.848;107.620;2023-09-30T13:32:10;14.05;;;9.50;;
59828;SDS011;45708;51.848;107.620;2023-09-30T13:37:11;18.25;;;14.48;;
59828;SDS011;45708;51.848;107.620;2023-09-30T13:42:12;33.58;;;11.57;;
59828;SDS011;45708;51.848;107.620;2023-09-30T13:47:13;14.60;;;11.98;;
59828;SDS011;45708;51.848;107.620;2023-09-30T13:52:14;17.30;;;11.90;;
59828;SDS011;45708;51.848;107.620;2023-09-30T13:57:15;20.60;;;12.38;;
59828;SDS011;45708;51.848;107.620;2023-09-30T14:02:15;16.48;;;9.07;;
59828;SDS011;45708;51.848;107.620;2023-09-30T14:07:16;24.83;;;12.38;;
59828;SDS011;45708;51.848;107.620;2023-09-30T14:12:17;26.75;;;12.98;;
59828;SDS011;45708;51.848;107.620;2023-09-30T14:17:18;10.23;;;7.85;;
59828;SDS011;45708;51.848;107.620;2023-09-30T14:22:18;15.98;;;8.48;;
59828;SDS011;45708;51.848;107.620;2023-09-30T14:27:19;18.25;;;8.95;;
59828;SDS011;45708;51.848;107.620;2023-09-30T14:32:20;10.35;;;7.15;;
59828;SDS011;45708;51.848;107.620;2023-09-30T14:37:21;15.32;;;8.48;;
59828;SDS011;45708;51.848;107.620;2023-09-30T14:42:22;15.35;;;6.97;;
59828;SDS011;45708;51.848;107.620;2023-09-30T14:47:23;17.70;;;8.38;;
59828;SDS011;45708;51.848;107.620;2023-09-30T14:52:23;12.63;;;8.80;;
59828;SDS011;45708;51.848;107.620;2023-09-30T14:57:25;9.98;;;5.65;;
59828;SDS011;45708;51.848;107.620;2023-09-30T15:02:26;57.53;;;30.00;;
59828;SDS011;45708;51.848;107.620;2023-09-30T15:07:27;10.73;;;8.80;;
59828;SDS011;45708;51.848;107.620;2023-09-30T15:12:27;11.98;;;9.55;;
59828;SDS011;45708;51.848;107.620;2023-09-30T15:17:28;9.10;;;8.07;;
59828;SDS011;45708;51.848;107.620;2023-09-30T15:22:31;10.32;;;7.63;;
59828;SDS011;45708;51.848;107.620;2023-09-30T15:27:32;12.85;;;10.23;;
59828;SDS011;45708;51.848;107.620;2023-09-30T15:32:33;9.60;;;7.10;;
59828;SDS011;45708;51.848;107.620;2023-09-30T15:37:34;20.58;;;7.97;;
59828;SDS011;45708;51.848;107.620;2023-09-30T15:42:35;12.57;;;9.93;;
59828;SDS011;45708;51.848;107.620;2023-09-30T15:47:36;13.10;;;7.15;;
59828;SDS011;45708;51.848;107.620;2023-09-30T15:52:37;11.75;;;9.23;;
59828;SDS011;45708;51.848;107.620;2023-09-30T15:57:38;18.20;;;11.57;;
59828;SDS011;45708;51.848;107.620;2023-09-30T16:02:39;18.17;;;11.30;;
59828;SDS011;45708;51.848;107.620;2023-09-30T16:07:40;15.60;;;11.88;;
59828;SDS011;45708;51.848;107.620;2023-09-30T16:12:41;22.08;;;13.35;;
59828;SDS011;45708;51.848;107.620;2023-09-30T16:17:42;14.35;;;9.23;;
59828;SDS011;45708;51.848;107.620;2023-09-30T16:22:43;16.30;;;11.35;;
59828;SDS011;45708;51.848;107.620;2023-09-30T16:27:44;11.50;;;9.32;;
59828;SDS011;45708;51.848;107.620;2023-09-30T16:32:45;11.77;;;8.10;;
59828;SDS011;45708;51.848;107.620;2023-09-30T16:37:46;7.07;;;6.45;;
59828;SDS011;45708;51.848;107.620;2023-09-30T16:42:47;8.73;;;4.90;;
59828;SDS011;45708;51.848;107.620;2023-09-30T16:47:48;14.55;;;11.15;;
59828;SDS011;45708;51.848;107.620;2023-09-30T16:52:49;8.10;;;7.35;;
59828;SDS011;45708;51.848;107.620;2023-09-30T16:57:50;15.20;;;7.88;;
59828;SDS011;45708;51.848;107.620;2023-09-30T17:02:50;9.98;;;6.05;;
59828;SDS011;45708;51.848;107.620;2023-09-30T17:07:51;10.88;;;7.35;;
59828;SDS011;45708;51.848;107.620;2023-09-30T17:12:52;6.70;;;5.00;;
59828;SDS011;45708;51.848;107.620;2023-09-30T17:17:53;11.13;;;8.43;;
59828;SDS011;45708;51.848;107.620;2023-09-30T17:22:53;5.25;;;4.60;;
59828;SDS011;45708;51.848;107.620;2023-09-30T17:27:54;8.15;;;6.25;;
59828;SDS011;45708;51.848;107.620;2023-09-30T17:32:55;6.78;;;6.15;;
59828;SDS011;45708;51.848;107.620;2023-09-30T17:37:56;5.70;;;5.15;;
59828;SDS011;45708;51.848;107.620;2023-09-30T17:42:57;8.32;;;5.30;;
59828;SDS011;45708;51.848;107.620;2023-09-30T17:47:57;6.57;;;5.80;;
59828;SDS011;45708;51.848;107.620;2023-09-30T17:53:01;5.18;;;4.88;;
59828;SDS011;45708;51.848;107.620;2023-09-30T17:58:02;8.18;;;5.90;;
59828;SDS011;45708;51.848;107.620;2023-09-30T18:03:03;4.55;;;4.03;;
59828;SDS011;45708;51.848;107.620;2023-09-30T18:08:04;8.98;;;4.75;;
59828;SDS011;45708;51.848;107.620;2023-09-30T18:13:05;5.32;;;4.30;;
59828;SDS011;45708;51.848;107.620;2023-09-30T18:18:06;6.15;;;5.50;;
59828;SDS011;45708;51.848;107.620;2023-09-30T18:23:07;8.25;;;7.45;;
59828;SDS011;45708;51.848;107.620;2023-09-30T18:28:07;4.80;;;4.05;;
59828;SDS011;45708;51.848;107.620;2023-09-30T18:33:09;9.10;;;4.47;;
59828;SDS011;45708;51.848;107.620;2023-09-30T18:38:10;7.03;;;3.42;;
59828;SDS011;45708;51.848;107.620;2023-09-30T18:43:11;8.48;;;3.45;;
59828;SDS011;45708;51.848;107.620;2023-09-30T18:48:13;6.88;;;5.38;;
59828;SDS011;45708;51.848;107.620;2023-09-30T18:53:14;5.57;;;4.95;;
59828;SDS011;45708;51.848;107.620;2023-09-30T18:58:15;3.25;;;2.85;;
59828;SDS011;45708;51.848;107.620;2023-09-30T19:03:17;15.00;;;4.65;;
59828;SDS011;45708;51.848;107.620;2023-09-30T19:08:17;2.80;;;2.60;;
59828;SDS011;45708;51.848;107.620;2023-09-30T19:13:18;8.40;;;4.45;;
59828;SDS011;45708;51.848;107.620;2023-09-30T19:18:19;4.57;;;4.18;;
59828;SDS011;45708;51.848;107.620;2023-09-30T19:23:20;5.88;;;2.80;;
59828;SDS011;45708;51.848;107.620;2023-09-30T19:28:20;4.07;;;3.30;;
59828;SDS011;45708;51.848;107.620;2023-09-30T19:33:21;8.85;;;4.75;;
59828;SDS011;45708;51.848;107.620;2023-09-30T19:38:22;3.83;;;3.53;;
59828;SDS011;45708;51.848;107.620;2023-09-30T19:43:23;5.78;;;5.15;;
59828;SDS011;45708;51.848;107.620;2023-09-30T19:48:23;14.68;;;3.33;;
59828;SDS011;45708;51.848;107.620;2023-09-30T19:53:24;2.15;;;2.03;;
59828;SDS011;45708;51.848;107.620;2023-09-30T19:58:25;6.63;;;3.40;;
59828;SDS011;45708;51.848;107.620;2023-09-30T20:03:26;4.03;;;3.72;;
59828;SDS011;45708;51.848;107.620;2023-09-30T20:08:26;3.55;;;3.30;;
59828;SDS011;45708;51.848;107.620;2023-09-30T20:13:30;4.72;;;3.78;;
59828;SDS011;45708;51.848;107.620;2023-09-30T20:18:31;1.65;;;1.55;;
59828;SDS011;45708;51.848;107.620;2023-09-30T20:23:32;7.90;;;4.70;;
59828;SDS011;45708;51.848;107.620;2023-09-30T20:28:33;6.75;;;4.82;;
59828;SDS011;45708;51.848;107.620;2023-09-30T20:33:34;7.43;;;3.33;;
59828;SDS011;45708;51.848;107.620;2023-09-30T20:38:34;10.43;;;4.40;;
59828;SDS011;45708;51.848;107.620;2023-09-30T20:43:41;3.30;;;3.05;;
59828;SDS011;45708;51.848;107.620;2023-09-30T20:48:43;2.72;;;2.53;;
59828;SDS011;45708;51.848;107.620;2023-09-30T20:53:44;5.65;;;3.80;;
59828;SDS011;45708;51.848;107.620;2023-09-30T20:58:44;9.18;;;4.53;;
59828;SDS011;45708;51.848;107.620;2023-09-30T21:03:45;8.18;;;4.15;;
59828;SDS011;45708;51.848;107.620;2023-09-30T21:08:46;4.07;;;3.72;;
59828;SDS011;45708;51.848;107.620;2023-09-30T21:13:47;4.78;;;3.13;;
59828;SDS011;45708;51.848;107.620;2023-09-30T21:18:49;1.05;;;0.93;;
59828;SDS011;45708;51.848;107.620;2023-09-30T21:23:49;3.40;;;1.85;;
59828;SDS011;45708;51.848;107.620;2023-09-30T21:28:50;3.55;;;3.30;;
59828;SDS011;45708;51.848;107.620;2023-09-30T21:33:51;2.67;;;2.42;;
59828;SDS011;45708;51.848;107.620;2023-09-30T21:38:52;2.53;;;2.10;;
59828;SDS011;45708;51.848;107.620;2023-09-30T21:43:52;2.63;;;2.30;;
59828;SDS011;45708;51.848;107.620;2023-09-30T21:48:53;1.48;;;1.48;;
59828;SDS011;45708;51.848;107.620;2023-09-30T21:53:54;5.45;;;1.63;;
59828;SDS011;45708;51.848;107.620;2023-09-30T21:58:55;5.25;;;2.22;;
59828;SDS011;45708;51.848;107.620;2023-09-30T22:03:55;1.85;;;1.70;;
59828;SDS011;45708;51.848;107.620;2023-09-30T22:08:56;6.18;;;2.33;;
59828;SDS011;45708;51.848;107.620;2023-09-30T22:13:57;3.53;;;2.95;;
59828;SDS011;45708;51.848;107.620;2023-09-30T22:18:58;6.10;;;3.55;;
59828;SDS011;45708;51.848;107.620;2023-09-30T22:23:59;2.83;;;2.35;;
59828;SDS011;45708;51.848;107.620;2023-09-30T22:28:59;3.47;;;2.90;;
59828;SDS011;45708;51.848;107.620;2023-09-30T22:34:00;4.00;;;3.00;;
59828;SDS011;45708;51.848;107.620;2023-09-30T22:39:01;10.05;;;4.60;;
59828;SDS011;45708;51.848;107.620;2023-09-30T22:44:02;4.15;;;3.80;;
59828;SDS011;45708;51.848;107.620;2023-09-30T22:49:03;2.22;;;2.05;;
59828;SDS011;45708;51.848;107.620;2023-09-30T22:54:04;6.72;;;3.95;;
59828;SDS011;45708;51.848;107.620;2023-09-30T22:59:05;1.27;;;1.17;;
59828;SDS011;45708;51.848;107.620;2023-09-30T23:04:06;5.40;;;4.82;;
59828;SDS011;45708;51.848;107.620;2023-09-30T23:09:06;8.32;;;3.72;;
59828;SDS011;45708;51.848;107.620;2023-09-30T23:14:08;5.57;;;3.92;;
59828;SDS011;45708;51.848;107.620;2023-09-30T23:19:09;8.63;;;4.20;;
59828;SDS011;45708;51.848;107.620;2023-09-30T23:24:09;5.93;;;2.85;;
59828;SDS011;45708;51.848;107.620;2023-09-30T23:29:10;2.50;;;1.50;;
59828;SDS011;45708;51.848;107.620;2023-09-30T23:34:11;4.22;;;3.05;;
59828;SDS011;45708;51.848;107.620;2023-09-30T23:39:12;4.43;;;3.85;;
59828;SDS011;45708;51.848;107.620;2023-09-30T23:44:12;2.63;;;2.42;;
59828;SDS011;45708;51.848;107.620;2023-09-30T23:49:13;2.60;;;2.40;;
59828;SDS011;45708;51.848;107.620;2023-09-30T23:54:14;3.65;;;3.35;;
59828;SDS011;45708;51.848;107.620;2023-09-30T23:59:15;2.38;;;2.20;;
